This is the latest recevied weather packets stored in our database for station/object DK4EP-10. If no packets are shown the sender has not sent any weather packets the latest 10 day(s).
| Time | Temp. | Humidity | Pressure | Rain* | Wind** | Luminosity | Snow |
|---|---|---|---|---|---|---|---|
| 1777103980 | 11.11° C | 77% | 993 hPa | - | - | - | - |
| 1777103078 | 11.67° C | 74% | 993 hPa | - | - | - | - |
| 1777102177 | 10° C | 80% | 993 hPa | - | - | - | - |
| 1777101276 | 9.44° C | 86% | 993 hPa | - | - | - | - |
| 1777100375 | 7.78° C | 97% | 993 hPa | - | - | - | - |
| 1777099474 | 7.22° C | 98% | 993 hPa | - | - | - | - |
| 1777098572 | 6.67° C | 100% | 993 hPa | - | - | - | - |
| 1777097671 | 6.11° C | 100% | 993 hPa | - | - | - | - |
| 1777096770 | 6.11° C | 100% | 992 hPa | - | - | - | - |
| 1777095869 | 6.11° C | 100% | 992 hPa | - | - | - | - |
| 1777094968 | 6.11° C | 100% | 992 hPa | - | - | - | - |
| 1777094067 | 6.11° C | 100% | 992 hPa | - | - | - | - |
| 1777093165 | 5.56° C | 100% | 992 hPa | - | - | - | - |
| 1777092264 | 5.56° C | 100% | 992 hPa | - | - | - | - |
| 1777091363 | 5.56° C | 100% | 992 hPa | - | - | - | - |
| 1777090462 | 5° C | 100% | 992 hPa | - | - | - | - |
| 1777089560 | 5° C | 100% | 992 hPa | - | - | - | - |
| 1777088659 | 5.56° C | 100% | 992 hPa | - | - | - | - |
| 1777087757 | 5.56° C | 100% | 992 hPa | - | - | - | - |
| 1777086856 | 6.11° C | 100% | 992 hPa | - | - | - | - |
| 1777085955 | 6.11° C | 100% | 992 hPa | - | - | - | - |
| 1777085054 | 5.56° C | 100% | 992 hPa | - | - | - | - |
| 1777084153 | 5.56° C | 100% | 993 hPa | - | - | - | - |
| 1777083252 | 5.56° C | 100% | 993 hPa | - | - | - | - |
| 1777082350 | 6.11° C | 100% | 993 hPa | - | - | - | - |
* Rain since midnight (hover to see other rain measurements)
** Current wind speed in m/s (hover to see current wind gust speed)